Time;durP1;ratioP1;P1;durP2;ratioP2;P2;SDS_P1;SDS_P2;PMS_P1;PMS_P2;Temp;Humidity;BMP_temperature;BMP_pressure;BME280_temperature;BME280_humidity;BME280_pressure;Samples;Min_cycle;Max_cycle;Signal;HPM_P1;HPM_P2
2022/05/06 00:00:39;;;;;;;22.15;16.45;;;;;;;8.22;100.00;93516.31;2107023;28;20035;-87
2022/05/06 00:01:40;;;;;;;23.48;16.90;;;;;;;8.11;100.00;93516.38;2106077;28;20110;-83
2022/05/06 00:02:42;;;;;;;18.83;16.85;;;;;;;8.07;100.00;93516.38;2108825;28;20107;-84
2022/05/06 00:03:43;;;;;;;19.73;17.42;;;;;;;8.14;100.00;93520.16;2106908;28;20058;-83
2022/05/06 00:04:44;;;;;;;22.35;16.35;;;;;;;8.22;100.00;93521.66;2106898;28;20766;-83
2022/05/06 00:05:45;;;;;;;19.42;16.52;;;;;;;8.28;100.00;93526.16;2106845;28;20527;-85
2022/05/06 00:06:45;;;;;;;20.27;17.05;;;;;;;8.24;100.00;93520.09;2106771;28;20032;-83
2022/05/06 00:07:46;;;;;;;23.05;18.08;;;;;;;8.17;100.00;93524.72;2106952;28;20066;-87
2022/05/06 00:08:47;;;;;;;21.33;17.52;;;;;;;8.07;100.00;93521.72;2101195;28;20048;-85
2022/05/06 00:09:48;;;;;;;21.10;17.58;;;;;;;8.19;100.00;93519.75;2123409;27;20027;-85
2022/05/06 00:10:49;;;;;;;20.00;16.38;;;;;;;8.18;100.00;93524.31;2115403;28;20020;-83
2022/05/06 00:11:53;;;;;;;22.98;16.98;;;;;;;8.18;100.00;93524.31;2105722;28;20633;-84
2022/05/06 00:12:55;;;;;;;21.83;15.55;;;;;;;8.18;100.00;93526.22;2112060;28;20040;-85
2022/05/06 00:13:56;;;;;;;20.17;17.25;;;;;;;8.25;100.00;93524.28;2109499;28;20077;-84
2022/05/06 00:14:57;;;;;;;20.45;16.35;;;;;;;8.28;100.00;93528.06;2106514;28;20043;-86
2022/05/06 00:15:58;;;;;;;17.83;15.80;;;;;;;8.35;100.00;93519.28;2106730;28;20063;-84
2022/05/06 00:16:59;;;;;;;20.65;17.15;;;;;;;8.26;100.00;93523.13;2098666;28;20469;-83
2022/05/06 00:18:00;;;;;;;20.90;15.98;;;;;;;8.39;100.00;93520.03;2115533;28;20047;-85
2022/05/06 00:19:00;;;;;;;20.58;16.23;;;;;;;8.41;100.00;93518.50;2106968;27;20024;-86
2022/05/06 00:20:02;;;;;;;17.27;15.48;;;;;;;8.37;100.00;93522.31;2106625;28;20070;-83
2022/05/06 00:21:03;;;;;;;22.42;16.83;;;;;;;8.24;100.00;93524.66;2107323;27;20031;-83
2022/05/06 00:22:04;;;;;;;23.52;16.95;;;;;;;8.40;100.00;93510.91;2115256;28;20384;-86
2022/05/06 00:23:05;;;;;;;20.65;16.88;;;;;;;8.25;100.00;93516.31;2106744;28;20586;-85
2022/05/06 00:24:06;;;;;;;19.20;16.15;;;;;;;8.25;100.00;93516.31;2115278;28;20590;-84
2022/05/06 00:25:08;;;;;;;22.73;16.70;;;;;;;8.30;100.00;93515.88;2106343;28;20030;-85
2022/05/06 00:26:10;;;;;;;18.58;16.63;;;;;;;8.33;100.00;93523.06;2089503;28;20028;-83
2022/05/06 00:27:11;;;;;;;20.17;16.73;;;;;;;8.22;100.00;93514.41;2103564;28;20487;-88
2022/05/06 00:28:15;;;;;;;23.33;16.30;;;;;;;8.30;100.00;93515.88;2098439;28;20036;-86
2022/05/06 00:29:16;;;;;;;20.35;16.60;;;;;;;8.23;100.00;93510.59;2099239;28;20028;-87
2022/05/06 00:30:17;;;;;;;19.95;16.67;;;;;;;8.30;100.00;93517.78;2117946;27;20027;-83
2022/05/06 00:31:18;;;;;;;24.00;16.52;;;;;;;8.34;100.00;93513.19;2123587;27;20072;-86
2022/05/06 00:32:19;;;;;;;22.80;16.50;;;;;;;8.35;100.00;93504.06;2106718;28;20069;-84
2022/05/06 00:33:24;;;;;;;20.08;16.80;;;;;;;8.34;100.00;93518.53;2098454;28;20016;-87
2022/05/06 00:34:25;;;;;;;20.38;16.35;;;;;;;8.33;100.00;93512.41;2107442;27;20024;-85
2022/05/06 00:35:26;;;;;;;21.27;17.67;;;;;;;8.32;100.00;93518.91;2115092;28;20559;-83
2022/05/06 00:36:27;;;;;;;22.58;16.90;;;;;;;8.27;100.00;93514.00;2114425;28;20039;-86
2022/05/06 00:37:28;;;;;;;21.25;17.02;;;;;;;8.19;100.00;93511.75;2098109;28;20021;-85
2022/05/06 00:38:30;;;;;;;26.67;16.83;;;;;;;8.18;100.00;93511.00;2106213;28;20024;-87
2022/05/06 00:39:31;;;;;;;34.20;17.67;;;;;;;8.19;100.00;93512.50;2106650;28;20439;-84
2022/05/06 00:40:32;;;;;;;22.33;17.50;;;;;;;8.21;100.00;93504.91;2098445;28;20107;-85
2022/05/06 00:41:34;;;;;;;21.98;16.83;;;;;;;8.16;100.00;93515.19;2106500;28;20444;-83
2022/05/06 00:42:35;;;;;;;22.58;16.70;;;;;;;8.26;100.00;93509.06;2106912;28;20020;-85
2022/05/06 00:43:41;;;;;;;20.85;16.58;;;;;;;8.34;100.00;93505.22;2106568;28;20553;-86
2022/05/06 00:44:42;;;;;;;21.05;16.45;;;;;;;8.27;100.00;93507.91;2099373;28;20020;-85
2022/05/06 00:45:53;;;;;;;20.67;16.48;;;;;;;8.29;100.00;93508.25;2106746;28;20481;-84
2022/05/06 00:46:56;;;;;;;22.55;16.42;;;;;;;8.23;100.00;93509.84;2115234;28;20514;-86
2022/05/06 00:47:59;;;;;;;20.60;16.98;;;;;;;8.29;100.00;93510.94;2106449;28;20035;-85
2022/05/06 00:49:00;;;;;;;25.48;18.17;;;;;;;8.42;100.00;93498.69;2106777;28;20038;-87
2022/05/06 00:50:03;;;;;;;28.88;17.48;;;;;;;8.24;100.00;93504.09;2105633;28;20115;-83
2022/05/06 00:51:06;;;;;;;19.83;16.63;;;;;;;8.16;100.00;93496.56;2098374;28;20044;-84
2022/05/06 00:52:08;;;;;;;21.02;16.27;;;;;;;8.19;100.00;93504.53;2098800;28;20127;-85
2022/05/06 00:53:10;;;;;;;22.33;17.02;;;;;;;8.31;100.00;93500.66;2106555;28;20119;-82
2022/05/06 00:54:11;;;;;;;20.60;17.65;;;;;;;8.15;100.00;93500.38;2112365;27;20107;-86
2022/05/06 00:55:13;;;;;;;21.98;16.73;;;;;;;8.22;100.00;93498.44;2115148;27;20025;-83
2022/05/06 00:56:17;;;;;;;20.05;17.13;;;;;;;8.27;100.00;93491.94;2098734;28;20063;-85
2022/05/06 00:57:18;;;;;;;21.40;17.60;;;;;;;8.30;100.00;93493.81;2099918;28;20051;-85
2022/05/06 00:58:23;;;;;;;23.80;17.05;;;;;;;8.30;100.00;93497.25;2089886;28;20021;-85
2022/05/06 00:59:24;;;;;;;24.63;17.60;;;;;;;8.26;100.00;93495.75;2106901;28;20028;-83
2022/05/06 01:00:25;;;;;;;21.45;16.98;;;;;;;8.24;100.00;93498.78;2106397;28;20573;-86
2022/05/06 01:01:26;;;;;;;24.13;16.67;;;;;;;8.15;100.00;93498.47;2097582;28;20023;-85
2022/05/06 01:02:27;;;;;;;22.08;17.73;;;;;;;8.14;100.00;93498.88;2101654;28;20028;-84
2022/05/06 01:03:28;;;;;;;22.73;16.67;;;;;;;8.13;100.00;93492.78;2114884;28;20541;-85
2022/05/06 01:04:29;;;;;;;19.17;16.67;;;;;;;8.13;100.00;93500.03;2106248;28;20028;-84
2022/05/06 01:05:31;;;;;;;22.85;16.90;;;;;;;8.13;100.00;93500.78;2089581;28;20021;-88
2022/05/06 01:06:34;;;;;;;27.02;17.30;;;;;;;8.14;100.00;93494.28;2098071;28;20098;-83
2022/05/06 01:07:36;;;;;;;21.85;17.60;;;;;;;8.04;100.00;93495.88;2106945;28;20027;-88
2022/05/06 01:08:38;;;;;;;20.70;16.55;;;;;;;8.16;100.00;93486.66;2098642;28;20733;-85
2022/05/06 01:09:39;;;;;;;25.73;17.20;;;;;;;8.15;100.00;93495.06;2106720;28;20430;-82
2022/05/06 01:10:41;;;;;;;22.33;17.55;;;;;;;8.13;100.00;93490.13;2114735;28;20020;-84
2022/05/06 01:11:43;;;;;;;22.48;17.00;;;;;;;8.13;100.00;93497.34;2097739;28;20031;-83
2022/05/06 01:12:45;;;;;;;24.73;16.48;;;;;;;8.12;100.00;93488.63;2098573;28;20115;-86
2022/05/06 01:13:47;;;;;;;21.33;16.73;;;;;;;8.13;100.00;93492.03;2105590;28;20028;-85
2022/05/06 01:14:48;;;;;;;27.55;17.70;;;;;;;8.07;100.00;93489.75;2105818;28;20722;-84
2022/05/06 01:15:49;;;;;;;20.38;16.27;;;;;;;8.11;100.00;93491.66;2097707;28;20029;-85
2022/05/06 01:16:50;;;;;;;21.33;16.85;;;;;;;8.15;100.00;93489.72;2089719;28;20025;-86
2022/05/06 01:17:52;;;;;;;28.45;17.60;;;;;;;8.11;100.00;93495.06;2098031;28;20489;-86
2022/05/06 01:18:53;;;;;;;21.05;17.02;;;;;;;8.12;100.00;93493.94;2105995;27;20028;-84
2022/05/06 01:19:54;;;;;;;22.40;16.90;;;;;;;8.12;100.00;93485.94;2106071;28;20024;-85
2022/05/06 01:20:58;;;;;;;23.92;16.98;;;;;;;8.12;100.00;93491.28;2106197;28;20031;-85
2022/05/06 01:21:59;;;;;;;21.20;16.02;;;;;;;8.22;100.00;93490.44;2106683;28;20484;-85
2022/05/06 01:23:00;;;;;;;23.63;17.40;;;;;;;8.30;100.00;93489.25;2106420;28;20456;-85
2022/05/06 01:24:02;;;;;;;19.77;16.20;;;;;;;8.30;100.00;93491.91;2098022;28;20024;-85
2022/05/06 01:25:04;;;;;;;26.27;17.38;;;;;;;8.19;100.00;93490.47;2089881;28;20025;-84
2022/05/06 01:26:05;;;;;;;21.75;17.20;;;;;;;8.13;100.00;93492.78;2088995;28;20040;-85
2022/05/06 01:27:14;;;;;;;19.55;15.88;;;;;;;8.20;100.00;93491.97;2090248;28;20116;-84
2022/05/06 01:28:16;;;;;;;24.55;16.33;;;;;;;8.18;100.00;93489.72;2107444;28;20404;-83
2022/05/06 01:29:19;;;;;;;19.98;16.30;;;;;;;8.22;100.00;93495.78;2098066;28;20075;-82
2022/05/06 01:30:29;;;;;;;23.42;17.15;;;;;;;8.07;100.00;93486.34;2098139;28;20571;-83
2022/05/06 01:31:31;;;;;;;20.67;16.35;;;;;;;8.21;100.00;93485.50;2111760;27;20106;-85
2022/05/06 01:32:33;;;;;;;23.25;16.95;;;;;;;8.27;100.00;93492.69;2114469;28;20027;-85
2022/05/06 01:33:36;;;;;;;22.55;16.38;;;;;;;8.20;100.00;93492.72;2114998;27;20049;-86
2022/05/06 01:34:40;;;;;;;19.08;15.60;;;;;;;8.20;100.00;93495.38;2106182;28;20027;-83
2022/05/06 01:35:49;;;;;;;22.65;16.80;;;;;;;8.19;100.00;93501.13;2114608;27;20543;-86
2022/05/06 01:36:54;;;;;;;22.80;15.70;;;;;;;8.18;100.00;93495.03;2115450;27;20020;-87
2022/05/06 01:38:00;;;;;;;21.67;16.48;;;;;;;8.13;100.00;93500.78;2105957;28;20024;-83
2022/05/06 01:39:01;;;;;;;27.33;17.13;;;;;;;8.12;100.00;93495.81;2098220;28;20435;-84
2022/05/06 01:40:04;;;;;;;22.38;16.83;;;;;;;8.20;100.00;93498.06;2097856;28;20031;-87
2022/05/06 01:41:13;;;;;;;21.98;15.98;;;;;;;8.25;100.00;93500.31;2094777;28;20086;-87
2022/05/06 01:42:18;;;;;;;23.58;15.52;;;;;;;8.18;100.00;93489.72;2109194;28;20514;-85
2022/05/06 01:43:22;;;;;;;27.05;15.70;;;;;;;8.22;100.00;93487.03;2106759;28;20032;-86
2022/05/06 01:44:26;;;;;;;21.75;15.35;;;;;;;8.19;100.00;93485.88;2098962;28;20029;-87
2022/05/06 01:45:30;;;;;;;21.95;15.75;;;;;;;8.18;100.00;93492.38;2098218;28;20054;-84
2022/05/06 01:46:35;;;;;;;19.27;15.50;;;;;;;8.19;100.00;93490.47;2098425;28;20025;-85
2022/05/06 01:47:38;;;;;;;27.70;16.20;;;;;;;8.18;100.00;93491.63;2090460;28;20025;-85
2022/05/06 01:48:41;;;;;;;23.58;15.50;;;;;;;8.22;100.00;93495.78;2090343;28;20497;-84
2022/05/06 01:49:45;;;;;;;19.30;14.93;;;;;;;8.22;100.00;93489.69;2105977;28;20050;-84
2022/05/06 01:50:48;;;;;;;26.52;16.13;;;;;;;8.13;100.00;93490.13;2104193;28;20035;-86
2022/05/06 01:51:50;;;;;;;18.33;15.38;;;;;;;8.09;100.00;93484.06;2114443;28;20028;-87
2022/05/06 01:52:51;;;;;;;22.10;16.98;;;;;;;8.11;100.00;93489.00;2102834;28;20517;-85
2022/05/06 01:53:52;;;;;;;25.70;15.77;;;;;;;8.11;100.00;93489.00;2092667;28;20036;-86
2022/05/06 01:54:53;;;;;;;17.33;14.13;;;;;;;8.13;100.00;93492.03;2097742;28;20478;-86
2022/05/06 01:55:54;;;;;;;21.80;15.35;;;;;;;8.08;100.00;93490.53;2106022;28;20020;-84
2022/05/06 01:56:55;;;;;;;18.58;15.38;;;;;;;8.05;100.00;93492.06;2097659;28;20031;-84
2022/05/06 01:57:55;;;;;;;20.35;14.88;;;;;;;8.00;100.00;93487.16;2105519;28;20020;-84
2022/05/06 01:58:56;;;;;;;24.23;15.43;;;;;;;8.01;100.00;93486.00;2106133;28;20051;-87
2022/05/06 01:59:57;;;;;;;20.67;15.02;;;;;;;8.02;100.00;93490.19;2097722;28;20115;-84
2022/05/06 02:00:58;;;;;;;21.15;15.15;;;;;;;8.08;100.00;93488.63;2101629;28;20016;-83
2022/05/06 02:02:02;;;;;;;19.25;14.90;;;;;;;8.04;100.00;93487.16;2096681;28;20035;-84
2022/05/06 02:03:04;;;;;;;22.10;15.50;;;;;;;8.02;100.00;93484.09;2090067;28;20467;-84
2022/05/06 02:05:25;;;;;;;18.92;15.60;;;;;;;8.01;100.00;93488.66;2102753;28;20381;-84
2022/05/06 02:06:26;;;;;;;19.52;14.38;;;;;;;8.04;100.00;93481.81;2097445;28;20025;-85
2022/05/06 02:07:27;;;;;;;17.85;14.88;;;;;;;8.13;100.00;93489.38;2097698;28;20687;-84
2022/05/06 02:08:28;;;;;;;20.20;15.32;;;;;;;8.02;100.00;93487.50;2101650;28;20039;-86
2022/05/06 02:09:29;;;;;;;19.08;14.70;;;;;;;8.06;100.00;93484.84;2097761;28;20024;-86
2022/05/06 02:10:31;;;;;;;19.02;15.50;;;;;;;8.13;100.00;93481.38;2097604;28;20024;-86
2022/05/06 02:13:04;;;;;;;;;;;;;;;7.97;100.00;93487.94;2148454;27;20113;-85
2022/05/06 02:14:05;;;;;;;19.75;14.23;;;;;;;7.97;100.00;93487.94;2129055;27;19911;-82
2022/05/06 02:15:07;;;;;;;20.30;14.43;;;;;;;7.94;100.00;93483.38;2121678;27;20027;-85
2022/05/06 02:16:08;;;;;;;19.15;14.45;;;;;;;7.99;100.00;93485.66;2113313;27;20035;-84
2022/05/06 02:17:09;;;;;;;17.27;14.18;;;;;;;8.12;100.00;93491.28;2113199;27;20111;-82
2022/05/06 02:18:10;;;;;;;19.88;14.50;;;;;;;8.09;100.00;93486.72;2124142;27;20023;-84
2022/05/06 02:19:11;;;;;;;23.98;14.82;;;;;;;8.04;100.00;93487.91;2130042;27;20022;-85
2022/05/06 02:20:12;;;;;;;22.67;14.27;;;;;;;8.00;100.00;93486.41;2113316;28;20036;-81
2022/05/06 02:21:13;;;;;;;23.52;15.52;;;;;;;8.03;100.00;93489.06;2121468;27;20027;-86
2022/05/06 02:22:14;;;;;;;21.23;14.85;;;;;;;8.17;100.00;93476.78;2121591;28;20019;-82
2022/05/06 02:23:15;;;;;;;17.70;14.45;;;;;;;8.26;100.00;93477.88;2107120;27;20130;-85
2022/05/06 02:24:16;;;;;;;18.38;14.57;;;;;;;8.16;100.00;93485.91;2112908;28;20023;-83
2022/05/06 02:25:17;;;;;;;20.55;14.73;;;;;;;8.16;100.00;93478.66;2104545;28;20102;-83
2022/05/06 02:26:18;;;;;;;20.85;15.02;;;;;;;8.05;100.00;93489.41;2110913;28;20553;-83
2022/05/06 02:27:19;;;;;;;18.17;14.27;;;;;;;8.14;100.00;93475.66;2127189;27;20035;-86
2022/05/06 02:28:20;;;;;;;20.33;15.10;;;;;;;8.05;100.00;93481.41;2120859;27;20080;-82
2022/05/06 02:29:21;;;;;;;18.85;14.68;;;;;;;7.98;100.00;93480.69;2119336;28;20699;-86
2022/05/06 02:33:15;;;;;;;16.33;14.02;;;;;;;7.97;100.00;93481.84;2124910;27;20142;-87
2022/05/06 02:34:17;;;;;;;20.77;14.65;;;;;;;7.93;100.00;93478.44;2122402;27;20092;-82
2022/05/06 02:35:19;;;;;;;16.08;14.38;;;;;;;7.88;100.00;93476.97;2130103;27;20034;-84
2022/05/06 02:36:20;;;;;;;17.60;14.07;;;;;;;7.89;100.00;93483.03;2121448;27;20470;-83
2022/05/06 02:37:20;;;;;;;21.75;14.18;;;;;;;7.96;100.00;93483.75;2112648;28;20085;-87
2022/05/06 02:38:24;;;;;;;19.15;13.95;;;;;;;7.93;100.00;93481.13;2120718;28;20027;-83
2022/05/06 02:39:25;;;;;;;20.95;14.85;;;;;;;7.88;100.00;93484.94;2105162;28;20029;-84
2022/05/06 02:40:27;;;;;;;17.95;13.52;;;;;;;7.93;100.00;93479.22;2112672;27;20028;-83
2022/05/06 02:41:28;;;;;;;17.42;14.55;;;;;;;7.92;100.00;93477.69;2121551;27;20023;-84
2022/05/06 02:42:29;;;;;;;21.30;14.68;;;;;;;7.85;100.00;93480.38;2121408;28;20019;-83
2022/05/06 02:43:30;;;;;;;20.27;14.73;;;;;;;7.94;100.00;93478.06;2121349;28;20072;-83
2022/05/06 02:44:31;;;;;;;22.73;14.57;;;;;;;7.91;100.00;93483.41;2121459;27;20042;-83
2022/05/06 02:45:33;;;;;;;20.65;14.77;;;;;;;7.92;100.00;93477.69;2113101;28;20477;-85
2022/05/06 02:46:35;;;;;;;18.40;14.93;;;;;;;7.87;100.00;93480.03;2113111;27;20027;-85
2022/05/06 02:47:36;;;;;;;20.58;14.45;;;;;;;7.82;100.00;93473.97;2112914;28;20031;-81
2022/05/06 02:48:37;;;;;;;18.25;14.55;;;;;;;8.07;100.00;93479.09;2121485;27;20027;-82
2022/05/06 02:49:38;;;;;;;18.58;14.02;;;;;;;8.04;100.00;93477.25;2129493;27;20077;-83
2022/05/06 02:50:41;;;;;;;20.35;14.60;;;;;;;8.25;100.00;93481.69;2114968;27;20051;-85
2022/05/06 02:51:42;;;;;;;17.90;14.20;;;;;;;8.15;100.00;93474.50;2104989;28;20449;-86
2022/05/06 02:52:43;;;;;;;21.08;14.38;;;;;;;8.06;100.00;93474.19;2112769;28;20065;-83
2022/05/06 02:53:46;;;;;;;21.25;14.77;;;;;;;8.05;100.00;93480.66;2104564;28;20024;-86
2022/05/06 02:54:47;;;;;;;19.98;14.50;;;;;;;8.02;100.00;93481.44;2104958;28;20020;-85
2022/05/06 02:55:48;;;;;;;17.52;13.88;;;;;;;8.00;100.00;93478.41;2119749;27;20023;-84
2022/05/06 02:56:49;;;;;;;21.58;14.85;;;;;;;7.99;100.00;93482.19;2113143;27;20027;-84
2022/05/06 02:57:51;;;;;;;20.73;14.77;;;;;;;7.96;100.00;93477.69;2106728;28;20473;-86
2022/05/06 02:58:52;;;;;;;19.13;14.57;;;;;;;7.93;100.00;93479.22;2104477;28;20036;-81
2022/05/06 02:59:53;;;;;;;22.83;15.60;;;;;;;7.95;100.00;93478.84;2104325;28;20016;-81
2022/05/06 03:00:54;;;;;;;18.88;14.60;;;;;;;7.90;100.00;93477.34;2108782;28;20380;-85
2022/05/06 03:01:55;;;;;;;17.77;14.23;;;;;;;8.04;100.00;93476.50;2103931;28;20071;-85
2022/05/06 03:02:57;;;;;;;23.05;15.07;;;;;;;8.07;100.00;93483.69;2104545;28;20024;-84
2022/05/06 03:03:57;;;;;;;19.60;14.20;;;;;;;8.07;100.00;93479.09;2112865;27;20048;-82
2022/05/06 03:04:58;;;;;;;21.52;14.05;;;;;;;8.03;100.00;93475.75;2121144;28;20337;-82
2022/05/06 03:06:00;;;;;;;20.98;14.60;;;;;;;8.00;100.00;93473.84;2106199;28;20509;-83
2022/05/06 03:07:04;;;;;;;21.83;14.82;;;;;;;7.94;100.00;93480.72;2096268;28;20067;-83
2022/05/06 03:08:05;;;;;;;17.58;14.75;;;;;;;8.02;100.00;93474.19;2105107;28;20023;-85
2022/05/06 03:09:06;;;;;;;20.15;14.45;;;;;;;8.08;100.00;93469.25;2112596;28;20503;-86
2022/05/06 03:10:09;;;;;;;22.30;14.93;;;;;;;7.98;100.00;93473.47;2123630;27;20019;-84
2022/05/06 03:11:10;;;;;;;17.23;13.98;;;;;;;7.95;100.00;93476.94;2108242;28;20026;-82
2022/05/06 03:12:11;;;;;;;16.55;14.23;;;;;;;7.90;100.00;93473.91;2104137;28;20120;-84
2022/05/06 03:13:12;;;;;;;17.88;14.65;;;;;;;7.88;100.00;93478.88;2120891;27;20423;-83
2022/05/06 03:14:13;;;;;;;22.15;14.82;;;;;;;7.96;100.00;93477.69;2120093;28;20027;-82
2022/05/06 03:15:14;;;;;;;21.08;14.50;;;;;;;7.99;100.00;93476.88;2114629;28;20024;-85
2022/05/06 03:16:15;;;;;;;19.13;14.52;;;;;;;8.01;100.00;93474.59;2114872;28;20024;-85
2022/05/06 03:17:16;;;;;;;19.52;15.40;;;;;;;7.97;100.00;93471.19;2104465;28;20020;-85
2022/05/06 03:18:17;;;;;;;19.02;14.85;;;;;;;7.90;100.00;93474.69;2112526;28;20569;-85
2022/05/06 03:19:19;;;;;;;18.08;14.10;;;;;;;7.93;100.00;93470.47;2112595;28;20027;-82
2022/05/06 03:20:20;;;;;;;18.80;14.70;;;;;;;8.00;100.00;93473.84;2096149;28;20032;-82
2022/05/06 03:21:21;;;;;;;19.27;14.50;;;;;;;8.02;100.00;93471.53;2115692;27;20033;-84
2022/05/06 03:22:22;;;;;;;18.20;14.88;;;;;;;8.00;100.00;93475.75;2121175;28;20039;-82
2022/05/06 03:23:23;;;;;;;18.00;13.95;;;;;;;7.98;100.00;93475.38;2104365;28;20024;-84
2022/05/06 03:24:24;;;;;;;20.45;13.95;;;;;;;8.13;100.00;93468.81;2107206;28;20115;-82
2022/05/06 03:25:26;;;;;;;18.20;14.32;;;;;;;8.40;100.00;93473.59;2106433;28;20028;-85
2022/05/06 03:26:26;;;;;;;16.30;14.23;;;;;;;8.29;100.00;93476.31;2097897;28;20063;-83
2022/05/06 03:28:48;;;;;;;19.77;13.70;;;;;;;8.04;100.00;93477.25;2103762;28;20428;-82
2022/05/06 03:29:49;;;;;;;15.63;13.95;;;;;;;8.03;100.00;93474.97;2107160;28;20024;-86
2022/05/06 03:30:52;;;;;;;17.83;14.20;;;;;;;7.94;100.00;93480.72;2098577;28;20020;-82
2022/05/06 03:31:53;;;;;;;21.92;14.57;;;;;;;7.94;100.00;93478.06;2093620;28;20028;-86
2022/05/06 03:32:55;;;;;;;18.42;14.68;;;;;;;7.93;100.00;93476.53;2107225;28;20066;-84
2022/05/06 03:33:57;;;;;;;17.20;14.93;;;;;;;7.95;100.00;93476.16;2111763;28;20426;-83
2022/05/06 03:35:05;;;;;;;20.08;14.45;;;;;;;7.98;100.00;93470.81;2115627;27;20039;-86
2022/05/06 03:36:08;;;;;;;17.13;13.57;;;;;;;7.98;100.00;93472.72;2107623;28;20388;-83
2022/05/06 03:37:09;;;;;;;20.75;14.65;;;;;;;7.89;100.00;93469.72;2104292;28;20116;-82
2022/05/06 03:38:10;;;;;;;20.02;15.32;;;;;;;7.87;100.00;93472.78;2098002;28;20028;-83
2022/05/06 03:39:11;;;;;;;17.98;14.57;;;;;;;7.91;100.00;93470.88;2098529;28;20021;-84
2022/05/06 03:40:15;;;;;;;22.13;15.23;;;;;;;7.85;100.00;93472.41;2098662;28;20035;-83
2022/05/06 03:41:15;;;;;;;19.63;14.88;;;;;;;7.86;100.00;93471.28;2098483;28;20550;-83
2022/05/06 03:42:16;;;;;;;17.45;14.15;;;;;;;7.90;100.00;93463.25;2100431;28;20028;-84
2022/05/06 03:43:17;;;;;;;19.85;14.10;;;;;;;7.98;100.00;93470.81;2106987;28;20027;-84
2022/05/06 03:44:18;;;;;;;16.25;13.77;;;;;;;8.02;100.00;93468.88;2098516;28;20020;-85
2022/05/06 03:45:19;;;;;;;20.77;14.80;;;;;;;8.24;100.00;93466.81;2098362;28;20031;-85
2022/05/06 03:46:20;;;;;;;20.58;14.43;;;;;;;8.10;100.00;93469.59;2098405;28;20064;-84
2022/05/06 03:47:21;;;;;;;19.67;14.75;;;;;;;8.01;100.00;93471.94;2098242;28;20605;-84
2022/05/06 03:48:24;;;;;;;22.05;14.98;;;;;;;8.00;100.00;93476.50;2098548;28;20147;-85
2022/05/06 03:49:25;;;;;;;23.70;14.90;;;;;;;7.94;100.00;93466.66;2098272;28;20115;-82
2022/05/06 03:51:47;;;;;;;19.67;14.90;;;;;;;7.89;100.00;93467.81;2106210;27;20016;-83
2022/05/06 03:52:48;;;;;;;19.92;15.25;;;;;;;7.92;100.00;93475.03;2106547;28;20135;-86
2022/05/06 03:53:55;;;;;;;19.45;14.98;;;;;;;8.07;100.00;93463.13;2115297;28;20442;-83
2022/05/06 03:54:56;;;;;;;18.33;15.18;;;;;;;7.95;100.00;93468.19;2107726;28;20606;-85
2022/05/06 03:56:08;;;;;;;20.95;15.98;;;;;;;7.93;100.00;93473.13;2106635;28;20031;-85
2022/05/06 03:57:09;;;;;;;17.38;14.77;;;;;;;7.91;100.00;93470.88;2100333;28;20044;-87
2022/05/06 03:58:10;;;;;;;18.25;14.50;;;;;;;7.86;100.00;93473.16;2106737;28;20350;-87
2022/05/06 03:59:10;;;;;;;19.30;14.32;;;;;;;7.85;100.00;93475.06;2098435;28;20517;-85
2022/05/06 04:00:14;;;;;;;19.42;14.65;;;;;;;7.85;100.00;93471.66;2090197;28;20053;-86
2022/05/06 04:01:16;;;;;;;19.73;14.30;;;;;;;7.89;100.00;93469.72;2092372;28;20021;-84
2022/05/06 04:02:17;;;;;;;17.98;13.18;;;;;;;7.89;100.00;93473.13;2097718;28;20112;-87
2022/05/06 04:03:18;;;;;;;20.38;14.65;;;;;;;7.87;100.00;93472.78;2114825;28;20035;-82
2022/05/06 04:04:19;;;;;;;18.27;14.70;;;;;;;7.89;100.00;93472.38;2115298;27;20073;-82
2022/05/06 04:05:20;;;;;;;21.30;14.73;;;;;;;7.93;100.00;93473.13;2112035;28;20714;-86
2022/05/06 04:06:21;;;;;;;20.20;14.63;;;;;;;7.90;100.00;93472.03;2098226;28;20049;-86
2022/05/06 04:07:22;;;;;;;19.35;14.60;;;;;;;7.87;100.00;93472.03;2098253;28;20704;-86
2022/05/06 04:08:23;;;;;;;18.30;14.75;;;;;;;7.87;100.00;93472.78;2098033;28;20189;-83
2022/05/06 04:09:25;;;;;;;18.42;16.10;;;;;;;7.86;100.00;93476.59;2090181;28;20362;-85
2022/05/06 04:10:27;;;;;;;17.67;14.65;;;;;;;7.88;100.00;93476.97;2107082;27;20028;-84
2022/05/06 04:11:28;;;;;;;21.55;15.75;;;;;;;7.92;100.00;93477.69;2114914;28;20024;-86
2022/05/06 04:12:29;;;;;;;20.55;15.23;;;;;;;7.87;100.00;93480.78;2106254;28;20036;-83
2022/05/06 04:13:30;;;;;;;17.10;14.82;;;;;;;7.89;100.00;93473.13;2114662;27;20030;-85
2022/05/06 04:14:31;;;;;;;19.63;14.57;;;;;;;7.81;100.00;93477.00;2122923;27;20383;-83
2022/05/06 04:15:35;;;;;;;23.05;14.85;;;;;;;7.85;100.00;93477.72;2106599;28;20534;-84
2022/05/06 04:16:55;;;;;;;21.38;14.73;;;;;;;7.87;100.00;93477.34;2106964;28;20012;-83
2022/05/06 04:17:56;;;;;;;15.50;13.45;;;;;;;7.87;100.00;93480.03;2103527;28;20027;-82
2022/05/06 04:18:57;;;;;;;17.15;15.35;;;;;;;7.85;100.00;93476.97;2097851;28;20032;-85
2022/05/06 04:23:57;;;;;;;17.33;14.70;;;;;;;7.85;100.00;93482.28;2117197;27;20530;-83
2022/05/06 04:24:58;;;;;;;20.05;15.27;;;;;;;7.87;100.00;93480.78;2115079;28;20024;-81
2022/05/06 04:26:03;;;;;;;21.35;15.43;;;;;;;7.85;100.00;93488.38;2096954;28;20032;-87
2022/05/06 04:27:06;;;;;;;22.00;15.98;;;;;;;7.89;100.00;93493.69;2099589;27;20027;-84
2022/05/06 04:28:06;;;;;;;19.95;15.52;;;;;;;8.13;100.00;93497.34;2114858;28;20020;-84
2022/05/06 04:29:08;;;;;;;19.42;15.88;;;;;;;8.19;100.00;93493.13;2106250;28;20128;-83
2022/05/06 04:30:11;;;;;;;21.80;17.15;;;;;;;8.15;100.00;93495.81;2098894;28;20083;-83
2022/05/06 04:31:12;;;;;;;20.85;15.63;;;;;;;8.04;100.00;93495.88;2112571;27;20023;-82
2022/05/06 04:32:13;;;;;;;21.02;15.35;;;;;;;8.00;100.00;93491.72;2106423;28;20583;-84
2022/05/06 04:33:14;;;;;;;22.33;15.93;;;;;;;8.18;100.00;93496.94;2106486;28;20032;-85
2022/05/06 04:34:15;;;;;;;23.73;15.60;;;;;;;8.08;100.00;93495.88;2106134;28;20093;-83
2022/05/06 04:35:16;;;;;;;22.20;15.40;;;;;;;8.00;100.00;93497.06;2114728;28;20028;-83
2022/05/06 04:36:17;;;;;;;20.65;16.02;;;;;;;8.02;100.00;93495.50;2113980;28;20127;-81
2022/05/06 04:37:19;;;;;;;22.65;16.20;;;;;;;8.00;100.00;93494.38;2100418;28;20450;-82
2022/05/06 04:38:22;;;;;;;20.52;16.17;;;;;;;7.98;100.00;93496.66;2093149;28;20048;-85
2022/05/06 04:39:23;;;;;;;23.80;16.45;;;;;;;7.88;100.00;93497.50;2095141;28;20123;-86
2022/05/06 04:40:28;;;;;;;24.05;16.85;;;;;;;7.86;100.00;93497.09;2097323;28;20032;-82
2022/05/06 04:41:29;;;;;;;24.23;17.73;;;;;;;7.87;100.00;93494.06;2095762;28;20020;-83
2022/05/06 04:42:30;;;;;;;20.60;16.17;;;;;;;7.82;100.00;93494.50;2085894;28;20021;-82
2022/05/06 04:43:32;;;;;;;19.27;16.33;;;;;;;7.91;100.00;93502.81;2096546;28;20054;-85
2022/05/06 04:44:33;;;;;;;23.30;17.48;;;;;;;7.90;100.00;93500.50;2105099;28;20039;-83
2022/05/06 04:45:41;;;;;;;30.88;17.85;;;;;;;7.93;100.00;93491.75;2096838;28;20104;-84
2022/05/06 04:46:42;;;;;;;23.35;17.45;;;;;;;7.86;100.00;93497.88;2103699;28;20024;-86
2022/05/06 04:47:43;;;;;;;20.88;16.25;;;;;;;7.93;100.00;93502.41;2096958;28;20029;-84
2022/05/06 04:48:45;;;;;;;21.25;17.45;;;;;;;7.97;100.00;93506.56;2087843;28;20073;-83
2022/05/06 04:49:46;;;;;;;23.70;18.55;;;;;;;7.91;100.00;93502.06;2102665;28;20118;-84
2022/05/06 04:50:47;;;;;;;20.58;16.98;;;;;;;7.98;100.00;93494.75;2106037;28;20388;-84
2022/05/06 04:51:50;;;;;;;25.40;17.40;;;;;;;8.03;100.00;93505.03;2099498;28;20157;-84
2022/05/06 04:52:52;;;;;;;19.63;17.30;;;;;;;8.02;100.00;93505.41;2100690;27;20056;-84
2022/05/06 04:53:55;;;;;;;21.45;17.27;;;;;;;7.99;100.00;93498.19;2101898;28;20422;-85
2022/05/06 04:54:55;;;;;;;25.10;18.05;;;;;;;7.97;100.00;93497.81;2096800;28;20040;-82
2022/05/06 04:55:56;;;;;;;27.23;17.25;;;;;;;7.94;100.00;93506.56;2104741;28;20039;-83
2022/05/06 04:56:57;;;;;;;26.38;18.02;;;;;;;7.98;100.00;93504.66;2105480;28;20012;-85